createdAt,value
2023-05-14T00:01:58.780Z,14.15
2023-05-14T00:04:26.383Z,14.55
2023-05-14T00:06:54.150Z,14.68
2023-05-14T00:09:21.527Z,14.63
2023-05-14T00:11:48.880Z,13.05
2023-05-14T00:14:16.359Z,13.65
2023-05-14T00:16:43.694Z,12.25
2023-05-14T00:19:11.250Z,14.82
2023-05-14T00:21:38.680Z,12.77
2023-05-14T00:24:06.398Z,12.05
2023-05-14T00:26:33.852Z,14.35
2023-05-14T00:29:01.309Z,16.63
2023-05-14T00:31:28.671Z,15.00
2023-05-14T00:33:56.282Z,17.35
2023-05-14T00:36:23.568Z,19.92
2023-05-14T00:38:51.087Z,15.00
2023-05-14T00:41:18.359Z,14.98
2023-05-14T00:43:45.736Z,13.82
2023-05-14T00:46:13.672Z,13.30
2023-05-14T00:48:41.483Z,18.10
2023-05-14T00:51:08.914Z,17.65
2023-05-14T00:53:36.759Z,14.77
2023-05-14T00:56:04.200Z,14.32
2023-05-14T00:58:31.577Z,14.63
2023-05-14T01:00:58.825Z,18.48
2023-05-14T01:03:26.988Z,17.67
2023-05-14T01:06:08.543Z,16.13
2023-05-14T01:08:58.526Z,15.90
2023-05-14T01:11:28.798Z,15.05
2023-05-14T01:14:14.230Z,18.88
2023-05-14T01:16:43.660Z,16.42
2023-05-14T01:19:30.035Z,14.50
2023-05-14T01:21:57.279Z,13.63
2023-05-14T01:24:24.550Z,18.05
2023-05-14T01:26:52.160Z,15.80
2023-05-14T01:29:24.616Z,16.85
2023-05-14T01:31:54.492Z,15.75
2023-05-14T01:34:24.433Z,15.35
2023-05-14T01:36:53.355Z,18.27
2023-05-14T01:39:26.623Z,17.55
2023-05-14T01:41:55.276Z,17.52
2023-05-14T01:44:23.005Z,17.83
2023-05-14T01:46:50.213Z,16.92
2023-05-14T01:49:18.584Z,15.45
2023-05-14T01:51:46.419Z,15.80
2023-05-14T01:54:13.715Z,16.30
2023-05-14T01:56:41.069Z,13.68
2023-05-14T01:59:08.335Z,16.90
2023-05-14T02:01:36.477Z,24.17
2023-05-14T02:04:04.114Z,19.10
2023-05-14T02:06:32.264Z,14.38
2023-05-14T02:08:59.745Z,14.75
2023-05-14T02:11:26.989Z,13.85
2023-05-14T02:13:54.228Z,18.33
2023-05-14T02:16:21.571Z,17.40
2023-05-14T02:18:48.949Z,17.98
2023-05-14T02:21:16.519Z,15.80
2023-05-14T02:23:44.259Z,17.60
2023-05-14T02:26:12.273Z,14.60
2023-05-14T02:28:39.683Z,15.93
2023-05-14T02:31:06.951Z,12.68
2023-05-14T02:33:34.328Z,13.93
2023-05-14T02:36:01.568Z,15.77
2023-05-14T02:38:28.892Z,12.70
2023-05-14T02:40:57.088Z,15.05
2023-05-14T02:43:24.421Z,14.82
2023-05-14T02:45:52.671Z,12.85
2023-05-14T02:48:19.998Z,13.25
2023-05-14T02:50:48.443Z,18.38
2023-05-14T02:53:15.666Z,11.57
2023-05-14T02:55:43.077Z,13.93
2023-05-14T02:58:10.380Z,12.30
2023-05-14T03:00:37.838Z,15.13
2023-05-14T03:03:05.721Z,13.98
2023-05-14T03:05:33.488Z,13.50
2023-05-14T03:08:00.978Z,15.52
2023-05-14T03:10:28.315Z,14.80
2023-05-14T03:12:55.678Z,15.50
2023-05-14T03:15:22.940Z,12.45
2023-05-14T03:17:50.740Z,13.98
2023-05-14T03:20:18.397Z,12.50
2023-05-14T03:22:45.641Z,12.43
2023-05-14T03:25:12.854Z,10.40
2023-05-14T03:27:40.163Z,10.07
2023-05-14T03:30:08.114Z,10.35
2023-05-14T03:32:35.427Z,10.50
2023-05-14T03:35:02.756Z,9.45
2023-05-14T03:37:30.024Z,10.10
2023-05-14T03:39:57.233Z,13.35
2023-05-14T03:42:24.582Z,10.95
2023-05-14T03:44:51.802Z,11.73
2023-05-14T03:47:19.133Z,12.80
2023-05-14T03:49:46.580Z,12.63
2023-05-14T03:52:15.421Z,10.27
2023-05-14T03:54:44.588Z,12.13
2023-05-14T03:57:11.810Z,9.32
2023-05-14T03:59:39.112Z,11.95
2023-05-14T04:02:06.376Z,12.52
2023-05-14T04:04:33.886Z,10.43
2023-05-14T04:07:02.967Z,13.52
2023-05-14T04:09:30.401Z,10.07
2023-05-14T04:11:57.699Z,9.57
2023-05-14T04:14:25.279Z,12.23
2023-05-14T04:16:53.222Z,11.65
2023-05-14T04:19:20.716Z,9.43
2023-05-14T04:21:47.960Z,13.07
2023-05-14T04:24:15.615Z,11.77
2023-05-14T04:26:43.066Z,13.77
2023-05-14T04:29:10.253Z,11.73
2023-05-14T04:31:37.698Z,11.02
2023-05-14T04:34:05.037Z,9.60
2023-05-14T04:36:32.353Z,11.65
2023-05-14T04:38:59.643Z,11.55
2023-05-14T04:41:26.950Z,12.88
2023-05-14T04:43:56.325Z,10.55
2023-05-14T04:46:23.743Z,15.93
2023-05-14T04:48:51.807Z,11.88
2023-05-14T04:51:19.114Z,10.45
2023-05-14T04:53:46.487Z,13.00
2023-05-14T04:56:13.857Z,12.18
2023-05-14T04:58:41.389Z,10.38
2023-05-14T05:01:09.295Z,10.98
2023-05-14T05:03:36.582Z,10.57
2023-05-14T05:06:03.969Z,10.63
2023-05-14T05:08:31.265Z,13.45
2023-05-14T05:10:58.448Z,15.02
2023-05-14T05:13:25.795Z,9.98
2023-05-14T05:15:53.127Z,10.60
2023-05-14T05:18:20.472Z,11.73
2023-05-14T05:20:48.127Z,11.48
2023-05-14T05:23:15.494Z,12.30
2023-05-14T05:25:42.757Z,9.65
2023-05-14T05:28:10.005Z,10.07
2023-05-14T05:30:37.367Z,13.13
2023-05-14T05:33:04.892Z,10.55
2023-05-14T05:35:32.289Z,9.48
2023-05-14T05:38:01.589Z,8.73
2023-05-14T05:40:29.138Z,9.52
2023-05-14T05:42:56.416Z,10.73
2023-05-14T05:45:23.744Z,9.32
2023-05-14T05:47:51.286Z,9.57
2023-05-14T05:50:20.003Z,12.02
2023-05-14T05:52:47.478Z,11.50
2023-05-14T05:55:14.818Z,11.80
2023-05-14T05:57:42.136Z,11.02
2023-05-14T06:00:13.248Z,11.55
2023-05-14T06:02:41.798Z,11.98
2023-05-14T06:05:10.669Z,15.80
2023-05-14T06:07:38.276Z,13.82
2023-05-14T06:10:06.558Z,15.25
2023-05-14T06:12:33.888Z,13.32
2023-05-14T06:15:01.164Z,14.73
2023-05-14T06:17:28.475Z,13.77
2023-05-14T06:19:55.858Z,14.77
2023-05-14T06:22:23.084Z,12.98
2023-05-14T06:24:50.314Z,10.90
2023-05-14T06:27:17.648Z,14.77
2023-05-14T06:29:44.984Z,16.85
2023-05-14T06:32:15.392Z,12.48
2023-05-14T06:34:42.935Z,13.85
2023-05-14T06:37:11.154Z,15.80
2023-05-14T06:39:38.960Z,15.90
2023-05-14T06:42:06.973Z,17.73
2023-05-14T06:44:34.308Z,20.60
2023-05-14T06:47:01.598Z,20.77
2023-05-14T06:49:29.026Z,16.83
2023-05-14T06:51:56.353Z,19.90
2023-05-14T06:54:23.604Z,17.65
2023-05-14T06:56:50.886Z,17.95
2023-05-14T06:59:19.398Z,16.90
2023-05-14T07:01:46.807Z,17.83
2023-05-14T07:04:14.098Z,15.60
2023-05-14T07:06:41.315Z,19.38
2023-05-14T07:09:08.659Z,20.08
2023-05-14T07:11:35.988Z,17.60
2023-05-14T07:14:03.462Z,12.73
2023-05-14T07:16:30.885Z,13.13
2023-05-14T07:18:58.133Z,17.20
2023-05-14T07:21:26.129Z,14.20
2023-05-14T07:23:53.311Z,14.82
2023-05-14T07:26:21.465Z,14.27
2023-05-14T07:28:48.697Z,14.48
2023-05-14T07:31:16.000Z,13.77
2023-05-14T07:33:43.301Z,14.40
2023-05-14T07:36:10.954Z,12.18
2023-05-14T07:38:38.259Z,10.48
2023-05-14T07:41:05.582Z,10.15
2023-05-14T07:43:32.784Z,9.45
2023-05-14T07:46:00.040Z,11.00
2023-05-14T07:48:27.339Z,8.90
2023-05-14T07:50:54.756Z,9.73
2023-05-14T07:53:23.450Z,12.00
2023-05-14T07:55:51.744Z,9.13
2023-05-14T07:58:18.967Z,9.63
2023-05-14T08:00:46.182Z,8.52
2023-05-14T08:03:13.729Z,8.63
2023-05-14T08:05:41.176Z,8.98
2023-05-14T08:08:08.534Z,9.25
2023-05-14T08:10:35.951Z,9.65
2023-05-14T08:13:03.446Z,8.27
2023-05-14T08:15:30.899Z,11.68
2023-05-14T08:18:03.289Z,10.07
2023-05-14T08:20:31.527Z,11.73
2023-05-14T08:22:58.766Z,9.45
2023-05-14T08:25:26.033Z,10.07
2023-05-14T08:27:54.233Z,8.63
2023-05-14T08:30:22.989Z,8.63
2023-05-14T08:32:50.892Z,6.88
2023-05-14T08:35:18.948Z,10.32
2023-05-14T08:37:46.464Z,8.20
2023-05-14T08:40:13.826Z,9.10
2023-05-14T08:42:41.750Z,8.90
2023-05-14T08:45:19.364Z,14.10
2023-05-14T08:47:50.979Z,6.55
2023-05-14T08:50:22.709Z,7.20
2023-05-14T08:52:51.623Z,5.22
2023-05-14T08:55:19.777Z,7.13
2023-05-14T08:57:47.249Z,5.68
2023-05-14T09:00:15.029Z,32.38
2023-05-14T09:02:44.440Z,8.63
2023-05-14T09:05:12.474Z,5.30
2023-05-14T09:07:40.008Z,5.25
2023-05-14T09:10:09.138Z,4.80
2023-05-14T09:12:36.557Z,7.05
2023-05-14T09:15:04.726Z,5.95
2023-05-14T09:17:33.386Z,4.78
2023-05-14T09:20:01.245Z,6.93
2023-05-14T09:22:32.677Z,8.82
2023-05-14T09:25:09.566Z,7.20
2023-05-14T09:27:36.956Z,6.15
2023-05-14T09:30:12.935Z,3.85
2023-05-14T09:32:44.155Z,5.55
2023-05-14T09:35:20.699Z,4.95
2023-05-14T09:37:53.568Z,4.10
2023-05-14T09:40:23.382Z,4.35
2023-05-14T09:42:51.317Z,3.78
2023-05-14T09:45:18.714Z,4.60
2023-05-14T09:47:46.138Z,4.95
2023-05-14T09:50:13.774Z,8.65
2023-05-14T09:52:41.222Z,6.47
2023-05-14T09:55:08.814Z,7.82
2023-05-14T09:57:36.787Z,8.68
2023-05-14T10:00:04.480Z,6.22
2023-05-14T10:02:37.746Z,8.52
2023-05-14T10:05:06.942Z,6.97
2023-05-14T10:07:39.323Z,8.77
2023-05-14T10:10:08.700Z,9.55
2023-05-14T10:12:40.563Z,10.20
2023-05-14T10:15:25.602Z,9.20
2023-05-14T10:17:58.629Z,12.45
2023-05-14T10:20:27.656Z,8.88
2023-05-14T10:22:55.405Z,8.27
2023-05-14T10:25:23.456Z,6.97
2023-05-14T10:27:50.924Z,7.55
2023-05-14T10:30:25.213Z,6.95
2023-05-14T10:33:11.330Z,6.03
2023-05-14T10:35:58.071Z,6.13
2023-05-14T10:38:29.971Z,4.90
2023-05-14T10:41:03.627Z,6.85
2023-05-14T10:43:35.680Z,6.28
2023-05-14T10:46:03.997Z,10.52
2023-05-14T10:48:32.322Z,6.18
2023-05-14T10:51:00.745Z,6.53
2023-05-14T10:53:39.385Z,9.25
2023-05-14T10:56:09.183Z,9.15
2023-05-14T10:58:38.775Z,8.60
2023-05-14T11:01:08.803Z,7.15
2023-05-14T11:03:45.222Z,7.97
2023-05-14T11:06:14.378Z,9.40
2023-05-14T11:08:41.980Z,9.02
2023-05-14T11:11:10.830Z,8.60
2023-05-14T11:13:38.610Z,9.77
2023-05-14T11:18:38.733Z,8.18
2023-05-14T11:21:06.647Z,5.95
2023-05-14T11:23:33.907Z,7.22
2023-05-14T11:26:01.548Z,7.35
2023-05-14T11:28:29.890Z,6.65
2023-05-14T11:30:57.348Z,5.88
2023-05-14T11:33:24.685Z,5.25
2023-05-14T11:35:52.055Z,6.05
2023-05-14T11:38:21.297Z,6.47
2023-05-14T11:40:56.530Z,8.90
2023-05-14T11:43:24.869Z,10.25
2023-05-14T11:45:53.478Z,7.72
2023-05-14T11:48:21.994Z,10.15
2023-05-14T11:50:50.988Z,7.22
2023-05-14T11:53:29.415Z,8.10
2023-05-14T11:56:00.032Z,5.70
2023-05-14T11:58:27.301Z,8.95
2023-05-14T12:00:56.100Z,6.82
2023-05-14T12:03:26.509Z,6.80
2023-05-14T12:05:58.778Z,13.18
2023-05-14T12:08:30.737Z,8.80
2023-05-14T12:11:01.917Z,8.68
2023-05-14T12:13:32.832Z,8.27
2023-05-14T12:16:05.491Z,7.22
2023-05-14T12:18:33.657Z,7.93
2023-05-14T12:21:05.259Z,5.28
2023-05-14T12:23:33.351Z,14.73
2023-05-14T12:26:06.953Z,7.43
2023-05-14T12:28:38.043Z,10.30
2023-05-14T12:31:06.476Z,8.32
2023-05-14T12:33:33.830Z,7.93
2023-05-14T12:36:07.356Z,6.78
2023-05-14T12:38:41.668Z,4.88
2023-05-14T12:41:08.983Z,4.60
2023-05-14T12:43:36.370Z,4.13
2023-05-14T12:46:03.638Z,3.17
2023-05-14T12:48:31.392Z,7.28
2023-05-14T12:50:58.810Z,5.80
2023-05-14T12:53:26.509Z,6.18
2023-05-14T12:55:54.817Z,4.07
2023-05-14T12:58:22.104Z,2.33
2023-05-14T13:00:49.383Z,4.57
2023-05-14T13:03:17.137Z,2.40
2023-05-14T13:05:44.634Z,4.07
2023-05-14T13:08:14.647Z,2.83
2023-05-14T13:10:41.959Z,2.20
2023-05-14T13:13:09.361Z,5.70
2023-05-14T13:15:37.512Z,3.60
2023-05-14T13:18:05.196Z,6.32
2023-05-14T13:20:34.000Z,2.00
2023-05-14T13:23:01.298Z,6.60
2023-05-14T13:25:28.872Z,5.85
2023-05-14T13:27:56.352Z,3.33
2023-05-14T13:30:24.135Z,18.08
2023-05-14T13:32:52.136Z,6.57
2023-05-14T13:35:19.627Z,8.73
2023-05-14T13:37:47.433Z,4.15
2023-05-14T13:40:15.350Z,3.42
2023-05-14T13:42:42.693Z,30.15
2023-05-14T13:45:11.525Z,3.90
2023-05-14T13:47:40.221Z,3.25
2023-05-14T13:50:08.179Z,6.13
2023-05-14T13:52:35.594Z,6.25
2023-05-14T13:55:02.980Z,15.40
2023-05-14T13:57:30.247Z,3.50
2023-05-14T13:59:57.612Z,2.55
2023-05-14T14:02:24.945Z,6.22
2023-05-14T14:04:52.405Z,7.72
2023-05-14T14:07:21.150Z,5.25
2023-05-14T14:09:48.558Z,2.90
2023-05-14T14:12:15.906Z,6.32
2023-05-14T14:14:43.183Z,4.25
2023-05-14T14:17:10.438Z,7.78
2023-05-14T14:19:37.800Z,5.68
2023-05-14T14:22:05.360Z,6.95
2023-05-14T14:24:32.719Z,4.45
2023-05-14T14:27:01.132Z,6.25
2023-05-14T14:29:30.968Z,3.83
2023-05-14T14:31:58.386Z,3.70
2023-05-14T14:34:25.926Z,4.20
2023-05-14T14:36:53.226Z,4.45
2023-05-14T14:39:21.058Z,4.93
2023-05-14T14:41:48.496Z,6.18
2023-05-14T14:44:20.764Z,3.33
2023-05-14T14:46:48.072Z,2.00
2023-05-14T14:49:15.396Z,5.88
2023-05-14T14:51:42.719Z,3.17
2023-05-14T14:54:10.047Z,3.85
2023-05-14T14:56:37.400Z,4.85
2023-05-14T14:59:04.793Z,3.92
2023-05-14T15:01:32.156Z,5.30
2023-05-14T15:03:59.439Z,2.63
2023-05-14T15:06:26.818Z,5.57
2023-05-14T15:08:54.084Z,2.95
2023-05-14T15:11:22.053Z,3.50
2023-05-14T15:13:49.398Z,3.03
2023-05-14T15:16:16.833Z,9.23
2023-05-14T15:18:44.283Z,3.40
2023-05-14T15:21:11.631Z,6.20
2023-05-14T15:23:38.829Z,20.23
2023-05-14T15:26:06.097Z,4.30
2023-05-14T15:28:33.409Z,3.53
2023-05-14T15:31:02.392Z,2.50
2023-05-14T15:33:29.711Z,5.30
2023-05-14T15:35:57.119Z,24.67
2023-05-14T15:38:24.647Z,4.25
2023-05-14T15:40:51.984Z,9.68
2023-05-14T15:43:19.254Z,3.42
2023-05-14T15:45:46.602Z,6.78
2023-05-14T15:48:13.879Z,6.07
2023-05-14T15:50:42.151Z,2.45
2023-05-14T15:53:09.422Z,3.78
2023-05-14T15:55:36.702Z,10.40
2023-05-14T15:58:03.990Z,4.88
2023-05-14T16:00:31.399Z,5.47
2023-05-14T16:02:58.844Z,7.28
2023-05-14T16:05:26.195Z,2.63
2023-05-14T16:07:53.528Z,5.32
2023-05-14T16:10:21.503Z,4.05
2023-05-14T16:12:48.959Z,3.97
2023-05-14T16:15:16.488Z,3.20
2023-05-14T16:17:43.839Z,3.75
2023-05-14T16:20:12.490Z,6.10
2023-05-14T16:22:40.096Z,7.65
2023-05-14T16:25:08.176Z,4.72
2023-05-14T16:27:35.535Z,3.15
2023-05-14T16:30:02.859Z,2.55
2023-05-14T16:32:30.274Z,7.03
2023-05-14T16:34:57.537Z,4.25
2023-05-14T16:37:24.902Z,2.10
2023-05-14T16:39:52.253Z,4.00
2023-05-14T16:42:19.465Z,5.65
2023-05-14T16:44:46.661Z,4.85
2023-05-14T16:47:13.887Z,3.70
2023-05-14T16:49:41.289Z,5.32
2023-05-14T16:52:08.644Z,2.88
2023-05-14T16:54:36.383Z,3.03
2023-05-14T16:57:04.067Z,3.03
2023-05-14T16:59:32.047Z,2.75
2023-05-14T17:01:59.404Z,4.45
2023-05-14T17:04:26.837Z,2.90
2023-05-14T17:06:54.659Z,4.43
2023-05-14T17:09:24.876Z,2.92
2023-05-14T17:11:52.158Z,2.83
2023-05-14T17:14:19.568Z,2.72
2023-05-14T17:16:47.050Z,4.53
2023-05-14T17:19:14.653Z,2.50
2023-05-14T17:21:42.301Z,4.15
2023-05-14T17:24:09.577Z,3.88
2023-05-14T17:26:37.776Z,4.75
2023-05-14T17:29:05.218Z,2.80
2023-05-14T17:31:35.228Z,3.22
2023-05-14T17:34:02.898Z,2.55
2023-05-14T17:36:31.868Z,3.05
2023-05-14T17:38:59.212Z,2.90
2023-05-14T17:41:26.692Z,3.15
2023-05-14T17:43:53.922Z,2.88
2023-05-14T17:46:21.571Z,3.28
2023-05-14T17:48:48.952Z,4.55
2023-05-14T17:51:16.264Z,4.65
2023-05-14T17:53:43.618Z,3.00
2023-05-14T17:56:11.290Z,3.03
2023-05-14T17:58:38.519Z,2.80
2023-05-14T18:01:06.105Z,2.78
2023-05-14T18:03:33.963Z,5.00
2023-05-14T18:06:01.617Z,2.97
2023-05-14T18:08:28.932Z,3.53
2023-05-14T18:10:56.330Z,3.25
2023-05-14T18:13:23.553Z,3.63
2023-05-14T18:15:54.152Z,2.55
2023-05-14T18:18:23.490Z,2.00
2023-05-14T18:20:51.807Z,5.18
2023-05-14T18:23:19.156Z,2.78
2023-05-14T18:25:47.973Z,4.75
2023-05-14T18:28:15.700Z,13.40
2023-05-14T18:30:43.515Z,3.05
2023-05-14T18:33:11.090Z,2.75
2023-05-14T18:35:38.476Z,3.13
2023-05-14T18:38:08.036Z,3.83
2023-05-14T18:40:35.357Z,5.47
2023-05-14T18:43:02.937Z,4.15
2023-05-14T18:45:31.598Z,2.58
2023-05-14T18:47:58.925Z,4.55
2023-05-14T18:50:26.148Z,5.45
2023-05-14T18:52:53.389Z,3.50
2023-05-14T18:55:20.734Z,6.72
2023-05-14T18:57:47.915Z,2.90
2023-05-14T19:00:15.761Z,3.90
2023-05-14T19:02:43.455Z,7.40
2023-05-14T19:05:10.873Z,4.20
2023-05-14T19:07:38.577Z,7.82
2023-05-14T19:10:06.758Z,4.55
2023-05-14T19:12:33.917Z,6.82
2023-05-14T19:15:01.210Z,5.10
2023-05-14T19:17:29.223Z,4.60
2023-05-14T19:19:56.673Z,3.35
2023-05-14T19:22:23.921Z,4.72
2023-05-14T19:24:51.138Z,3.97
2023-05-14T19:27:18.544Z,3.58
2023-05-14T19:29:45.837Z,2.05
2023-05-14T19:32:13.174Z,3.38
2023-05-14T19:34:40.407Z,3.50
2023-05-14T19:37:07.880Z,8.57
2023-05-14T19:39:35.250Z,5.82
2023-05-14T19:42:02.601Z,4.13
2023-05-14T19:44:30.806Z,3.67
2023-05-14T19:46:58.207Z,4.68
2023-05-14T19:49:25.555Z,4.03
2023-05-14T19:51:52.839Z,8.10
2023-05-14T19:54:20.199Z,4.15
2023-05-14T19:56:47.497Z,4.10
2023-05-14T19:59:14.849Z,3.58
2023-05-14T20:01:42.211Z,6.13
2023-05-14T20:04:09.547Z,5.05
2023-05-14T20:06:38.093Z,3.03
2023-05-14T20:09:05.858Z,3.63
2023-05-14T20:11:33.136Z,5.72
2023-05-14T20:14:00.411Z,2.70
2023-05-14T20:16:28.589Z,4.10
2023-05-14T20:18:56.275Z,3.97
2023-05-14T20:21:23.736Z,2.28
2023-05-14T20:23:50.957Z,3.38
2023-05-14T20:26:18.274Z,3.95
2023-05-14T20:28:45.547Z,5.80
2023-05-14T20:31:12.951Z,3.28
2023-05-14T20:33:40.340Z,3.40
2023-05-14T20:36:07.565Z,2.63
2023-05-14T20:38:35.043Z,2.15
2023-05-14T20:41:02.904Z,1.88
2023-05-14T20:43:30.267Z,1.83
2023-05-14T20:45:58.931Z,3.05
2023-05-14T20:48:26.468Z,3.83
2023-05-14T20:50:53.685Z,3.97
2023-05-14T20:53:21.265Z,2.53
2023-05-14T20:55:48.542Z,2.95
2023-05-14T20:58:15.862Z,1.85
2023-05-14T21:00:43.461Z,1.90
2023-05-14T21:03:10.972Z,3.17
2023-05-14T21:05:40.161Z,2.80
2023-05-14T21:08:08.018Z,1.75
2023-05-14T21:10:35.498Z,2.05
2023-05-14T21:13:02.932Z,2.97
2023-05-14T21:15:30.710Z,2.97
2023-05-14T21:17:58.205Z,2.63
2023-05-14T21:20:25.493Z,2.20
2023-05-14T21:22:52.658Z,2.90
2023-05-14T21:25:20.050Z,2.60
2023-05-14T21:27:47.571Z,2.22
2023-05-14T21:30:15.306Z,3.28
2023-05-14T21:32:42.523Z,2.30
2023-05-14T21:35:09.968Z,2.22
2023-05-14T21:37:39.299Z,2.22
2023-05-14T21:40:12.388Z,2.05
2023-05-14T21:42:40.824Z,3.10
2023-05-14T21:45:08.627Z,2.80
2023-05-14T21:47:36.793Z,3.03
2023-05-14T21:50:04.954Z,1.85
2023-05-14T21:52:32.307Z,2.85
2023-05-14T21:54:59.569Z,4.38
2023-05-14T21:57:28.414Z,4.40
2023-05-14T21:59:56.198Z,7.28
2023-05-14T22:02:28.416Z,2.30
2023-05-14T22:04:55.779Z,3.20
2023-05-14T22:07:23.140Z,3.30
2023-05-14T22:09:50.512Z,5.32
2023-05-14T22:12:17.744Z,3.20
2023-05-14T22:14:46.131Z,2.92
2023-05-14T22:17:13.395Z,3.70
2023-05-14T22:19:40.750Z,3.05
2023-05-14T22:22:07.996Z,4.03
2023-05-14T22:24:35.290Z,3.35
2023-05-14T22:27:02.592Z,2.85
2023-05-14T22:29:29.765Z,2.78
2023-05-14T22:31:57.037Z,5.53
2023-05-14T22:34:24.333Z,3.75
2023-05-14T22:36:51.654Z,4.13
2023-05-14T22:39:19.035Z,3.20
2023-05-14T22:41:46.293Z,2.95
2023-05-14T22:44:13.951Z,3.30
2023-05-14T22:46:41.278Z,4.55
2023-05-14T22:49:08.507Z,5.47
2023-05-14T22:51:35.802Z,3.20
2023-05-14T22:54:03.063Z,5.10
2023-05-14T22:56:30.858Z,3.65
2023-05-14T22:59:00.349Z,3.58
2023-05-14T23:01:28.921Z,4.13
2023-05-14T23:03:56.226Z,4.03
2023-05-14T23:06:24.613Z,4.53
2023-05-14T23:08:51.903Z,5.97
2023-05-14T23:11:19.246Z,4.93
2023-05-14T23:13:46.518Z,5.35
2023-05-14T23:16:14.091Z,11.15
2023-05-14T23:18:41.425Z,4.57
2023-05-14T23:21:09.062Z,6.20
2023-05-14T23:23:36.317Z,5.15
2023-05-14T23:26:03.725Z,6.75
2023-05-14T23:28:31.473Z,5.28
2023-05-14T23:30:59.081Z,4.80
2023-05-14T23:33:26.555Z,4.80
2023-05-14T23:35:53.894Z,5.45
2023-05-14T23:38:21.470Z,9.40
2023-05-14T23:40:49.011Z,6.45
2023-05-14T23:43:16.269Z,6.07
2023-05-14T23:45:43.629Z,8.80
2023-05-14T23:48:10.952Z,9.68
2023-05-14T23:50:38.191Z,11.38
2023-05-14T23:53:05.460Z,12.90
2023-05-14T23:55:32.780Z,6.32
2023-05-14T23:58:00.028Z,7.40
